sensor_id;sensor_type;location;lat;lon;timestamp;pressure;altitude;pressure_sealevel;temperature;humidity
9784;BME280;4931;44.874;-1.092;2022-08-06T00:03:13;101680.50;;;23.29;82.35
9784;BME280;4931;44.874;-1.092;2022-08-06T00:08:05;101692.66;;;23.12;83.03
9784;BME280;4931;44.874;-1.092;2022-08-06T00:12:51;101685.41;;;23.11;83.49
9784;BME280;4931;44.874;-1.092;2022-08-06T00:17:37;101679.81;;;23.11;82.73
9784;BME280;4931;44.874;-1.092;2022-08-06T00:22:23;101685.59;;;23.15;81.08
9784;BME280;4931;44.874;-1.092;2022-08-06T00:27:12;101694.66;;;23.12;81.52
9784;BME280;4931;44.874;-1.092;2022-08-06T00:32:10;101703.88;;;22.91;82.45
9784;BME280;4931;44.874;-1.092;2022-08-06T00:37:05;101699.63;;;22.85;82.75
9784;BME280;4931;44.874;-1.092;2022-08-06T00:42:00;101701.28;;;22.86;83.02
9784;BME280;4931;44.874;-1.092;2022-08-06T00:46:52;101689.75;;;22.66;83.55
9784;BME280;4931;44.874;-1.092;2022-08-06T00:51:38;101706.53;;;22.66;83.41
9784;BME280;4931;44.874;-1.092;2022-08-06T00:56:33;101708.66;;;22.69;82.96
9784;BME280;4931;44.874;-1.092;2022-08-06T01:01:18;101695.00;;;22.68;82.76
9784;BME280;4931;44.874;-1.092;2022-08-06T01:06:06;101705.22;;;22.85;80.44
9784;BME280;4931;44.874;-1.092;2022-08-06T01:11:12;101704.81;;;22.53;82.89
9784;BME280;4931;44.874;-1.092;2022-08-06T01:16:05;101697.31;;;22.45;83.00
9784;BME280;4931;44.874;-1.092;2022-08-06T01:21:02;101698.53;;;22.56;82.57
9784;BME280;4931;44.874;-1.092;2022-08-06T01:26:32;101688.28;;;22.39;82.33
9784;BME280;4931;44.874;-1.092;2022-08-06T01:31:28;101694.91;;;22.26;83.04
9784;BME280;4931;44.874;-1.092;2022-08-06T01:36:23;101691.13;;;22.30;81.22
9784;BME280;4931;44.874;-1.092;2022-08-06T01:41:15;101685.69;;;22.34;81.04
9784;BME280;4931;44.874;-1.092;2022-08-06T01:46:45;101684.56;;;22.26;80.27
9784;BME280;4931;44.874;-1.092;2022-08-06T01:51:32;101686.69;;;22.29;79.32
9784;BME280;4931;44.874;-1.092;2022-08-06T01:56:41;101678.69;;;22.19;80.08
9784;BME280;4931;44.874;-1.092;2022-08-06T02:01:42;101679.84;;;22.18;80.02
9784;BME280;4931;44.874;-1.092;2022-08-06T02:06:38;101675.13;;;22.10;80.51
9784;BME280;4931;44.874;-1.092;2022-08-06T02:11:31;101678.09;;;22.04;80.66
9784;BME280;4931;44.874;-1.092;2022-08-06T02:16:44;101674.34;;;22.00;80.74
9784;BME280;4931;44.874;-1.092;2022-08-06T02:21:30;101670.41;;;22.01;80.08
9784;BME280;4931;44.874;-1.092;2022-08-06T02:26:18;101673.19;;;22.01;80.69
9784;BME280;4931;44.874;-1.092;2022-08-06T02:31:06;101670.59;;;21.96;81.02
9784;BME280;4931;44.874;-1.092;2022-08-06T02:35:59;101663.16;;;22.00;81.15
9784;BME280;4931;44.874;-1.092;2022-08-06T02:41:08;101650.06;;;21.92;81.36
9784;BME280;4931;44.874;-1.092;2022-08-06T02:45:59;101661.88;;;21.98;81.68
9784;BME280;4931;44.874;-1.092;2022-08-06T02:50:47;101662.38;;;22.00;81.26
9784;BME280;4931;44.874;-1.092;2022-08-06T02:55:40;101661.25;;;21.92;82.13
9784;BME280;4931;44.874;-1.092;2022-08-06T03:00:27;101667.81;;;21.87;83.07
9784;BME280;4931;44.874;-1.092;2022-08-06T03:05:16;101664.69;;;21.89;83.29
9784;BME280;4931;44.874;-1.092;2022-08-06T03:10:24;101659.50;;;21.79;83.97
9784;BME280;4931;44.874;-1.092;2022-08-06T03:15:15;101661.47;;;21.78;85.16
9784;BME280;4931;44.874;-1.092;2022-08-06T03:20:22;101647.06;;;21.67;85.98
9784;BME280;4931;44.874;-1.092;2022-08-06T03:25:12;101648.38;;;21.61;87.03
9784;BME280;4931;44.874;-1.092;2022-08-06T03:29:58;101639.56;;;21.59;87.64
9784;BME280;4931;44.874;-1.092;2022-08-06T03:34:48;101634.94;;;21.63;87.58
9784;BME280;4931;44.874;-1.092;2022-08-06T03:39:34;101635.63;;;21.43;89.77
9784;BME280;4931;44.874;-1.092;2022-08-06T03:44:22;101627.59;;;21.32;91.34
9784;BME280;4931;44.874;-1.092;2022-08-06T03:49:14;101623.78;;;21.46;90.80
9784;BME280;4931;44.874;-1.092;2022-08-06T03:54:26;101632.03;;;21.33;91.84
9784;BME280;4931;44.874;-1.092;2022-08-06T03:59:15;101628.63;;;21.19;93.75
9784;BME280;4931;44.874;-1.092;2022-08-06T04:04:03;101628.97;;;21.09;95.73
9784;BME280;4931;44.874;-1.092;2022-08-06T04:09:08;101629.59;;;21.14;96.12
9784;BME280;4931;44.874;-1.092;2022-08-06T04:14:01;101625.88;;;21.01;97.68
9784;BME280;4931;44.874;-1.092;2022-08-06T04:18:50;101625.88;;;21.01;97.62
9784;BME280;4931;44.874;-1.092;2022-08-06T04:23:40;101636.69;;;20.94;99.08
9784;BME280;4931;44.874;-1.092;2022-08-06T04:28:27;101636.38;;;20.87;100.00
9784;BME280;4931;44.874;-1.092;2022-08-06T04:33:19;101645.41;;;20.93;100.00
9784;BME280;4931;44.874;-1.092;2022-08-06T04:38:17;101657.06;;;20.86;100.00
9784;BME280;4931;44.874;-1.092;2022-08-06T04:43:12;101652.13;;;20.83;100.00
9784;BME280;4931;44.874;-1.092;2022-08-06T04:47:58;101651.31;;;20.82;100.00
9784;BME280;4931;44.874;-1.092;2022-08-06T04:52:47;101664.91;;;20.84;100.00
9784;BME280;4931;44.874;-1.092;2022-08-06T04:57:33;101666.34;;;20.64;100.00
9784;BME280;4931;44.874;-1.092;2022-08-06T05:02:38;101681.25;;;20.59;100.00
9784;BME280;4931;44.874;-1.092;2022-08-06T05:07:33;101675.53;;;20.55;100.00
9784;BME280;4931;44.874;-1.092;2022-08-06T05:12:46;101681.59;;;20.49;100.00
9784;BME280;4931;44.874;-1.092;2022-08-06T05:17:37;101675.66;;;20.42;100.00
9784;BME280;4931;44.874;-1.092;2022-08-06T05:22:31;101682.53;;;20.35;100.00
9784;BME280;4931;44.874;-1.092;2022-08-06T05:27:35;101700.72;;;20.33;100.00
9784;BME280;4931;44.874;-1.092;2022-08-06T05:32:46;101704.81;;;20.35;100.00
9784;BME280;4931;44.874;-1.092;2022-08-06T05:37:37;101703.53;;;20.42;100.00
9784;BME280;4931;44.874;-1.092;2022-08-06T05:42:43;101721.25;;;20.46;100.00
9784;BME280;4931;44.874;-1.092;2022-08-06T05:47:41;101720.75;;;20.44;100.00
9784;BME280;4931;44.874;-1.092;2022-08-06T05:52:45;101724.72;;;20.51;100.00
9784;BME280;4931;44.874;-1.092;2022-08-06T05:57:39;101733.44;;;20.67;100.00
9784;BME280;4931;44.874;-1.092;2022-08-06T06:02:36;101736.09;;;20.90;100.00
9784;BME280;4931;44.874;-1.092;2022-08-06T06:07:22;101740.34;;;21.31;100.00
9784;BME280;4931;44.874;-1.092;2022-08-06T06:12:31;101736.75;;;21.39;100.00
9784;BME280;4931;44.874;-1.092;2022-08-06T06:17:30;101736.41;;;21.50;100.00
9784;BME280;4931;44.874;-1.092;2022-08-06T06:22:25;101738.78;;;21.86;98.28
9784;BME280;4931;44.874;-1.092;2022-08-06T06:27:19;101740.88;;;22.07;94.55
9784;BME280;4931;44.874;-1.092;2022-08-06T06:32:38;101748.84;;;22.26;92.66
9784;BME280;4931;44.874;-1.092;2022-08-06T06:37:31;101749.34;;;22.58;89.49
9784;BME280;4931;44.874;-1.092;2022-08-06T06:42:25;101743.72;;;22.67;87.48
9784;BME280;4931;44.874;-1.092;2022-08-06T06:47:25;101749.25;;;23.39;83.35
9784;BME280;4931;44.874;-1.092;2022-08-06T06:52:20;101748.91;;;23.41;82.22
9784;BME280;4931;44.874;-1.092;2022-08-06T06:57:19;101748.28;;;23.68;78.42
9784;BME280;4931;44.874;-1.092;2022-08-06T07:02:25;101746.72;;;23.92;76.37
9784;BME280;4931;44.874;-1.092;2022-08-06T07:07:18;101745.34;;;23.98;76.31
9784;BME280;4931;44.874;-1.092;2022-08-06T07:12:06;101749.44;;;24.13;74.88
9784;BME280;4931;44.874;-1.092;2022-08-06T07:17:02;101761.94;;;24.16;74.07
9784;BME280;4931;44.874;-1.092;2022-08-06T07:22:09;101752.28;;;24.26;74.61
9784;BME280;4931;44.874;-1.092;2022-08-06T07:27:01;101755.63;;;24.44;72.80
9784;BME280;4931;44.874;-1.092;2022-08-06T07:31:48;101760.31;;;24.64;72.13
9784;BME280;4931;44.874;-1.092;2022-08-06T07:36:37;101766.38;;;24.79;70.42
9784;BME280;4931;44.874;-1.092;2022-08-06T07:41:37;101769.16;;;24.91;70.10
9784;BME280;4931;44.874;-1.092;2022-08-06T07:46:46;101756.75;;;25.05;69.63
9784;BME280;4931;44.874;-1.092;2022-08-06T07:51:35;101767.66;;;25.22;67.78
9784;BME280;4931;44.874;-1.092;2022-08-06T07:56:26;101761.88;;;25.43;67.03
9784;BME280;4931;44.874;-1.092;2022-08-06T08:01:12;101775.66;;;25.77;65.99
9784;BME280;4931;44.874;-1.092;2022-08-06T08:06:04;101767.59;;;25.91;64.71
9784;BME280;4931;44.874;-1.092;2022-08-06T08:11:07;101776.59;;;26.13;63.70
9784;BME280;4931;44.874;-1.092;2022-08-06T08:15:55;101773.66;;;26.57;61.21
9784;BME280;4931;44.874;-1.092;2022-08-06T08:20:42;101768.47;;;26.59;60.78
9784;BME280;4931;44.874;-1.092;2022-08-06T08:25:37;101766.94;;;26.78;60.08
9784;BME280;4931;44.874;-1.092;2022-08-06T08:30:26;101766.66;;;27.03;59.65
9784;BME280;4931;44.874;-1.092;2022-08-06T08:35:14;101772.00;;;27.27;58.11
9784;BME280;4931;44.874;-1.092;2022-08-06T08:40:00;101768.81;;;27.48;57.17
9784;BME280;4931;44.874;-1.092;2022-08-06T08:44:48;101756.84;;;27.75;55.87
9784;BME280;4931;44.874;-1.092;2022-08-06T08:49:37;101765.84;;;27.84;55.88
9784;BME280;4931;44.874;-1.092;2022-08-06T08:54:29;101764.44;;;27.94;55.54
9784;BME280;4931;44.874;-1.092;2022-08-06T08:59:18;101771.28;;;28.16;54.89
9784;BME280;4931;44.874;-1.092;2022-08-06T09:04:27;101776.22;;;28.23;54.22
9784;BME280;4931;44.874;-1.092;2022-08-06T09:09:12;101777.09;;;28.27;54.61
9784;BME280;4931;44.874;-1.092;2022-08-06T09:13:59;101782.59;;;27.96;54.20
9784;BME280;4931;44.874;-1.092;2022-08-06T09:18:49;101772.28;;;28.81;52.72
9784;BME280;4931;44.874;-1.092;2022-08-06T09:23:39;101782.16;;;28.94;51.82
9784;BME280;4931;44.874;-1.092;2022-08-06T09:28:40;101776.06;;;29.23;51.62
9784;BME280;4931;44.874;-1.092;2022-08-06T09:33:30;101785.69;;;29.18;51.17
9784;BME280;4931;44.874;-1.092;2022-08-06T09:38:48;101790.88;;;28.82;50.25
9784;BME280;4931;44.874;-1.092;2022-08-06T09:43:37;101782.59;;;28.96;48.75
9784;BME280;4931;44.874;-1.092;2022-08-06T09:48:57;101789.88;;;28.97;47.47
9784;BME280;4931;44.874;-1.092;2022-08-06T09:54:07;101788.78;;;29.06;47.25
9784;BME280;4931;44.874;-1.092;2022-08-06T09:59:07;101775.03;;;29.35;46.38
9784;BME280;4931;44.874;-1.092;2022-08-06T10:03:54;101775.13;;;29.42;45.91
9784;BME280;4931;44.874;-1.092;2022-08-06T10:09:07;101784.03;;;29.44;45.35
9784;BME280;4931;44.874;-1.092;2022-08-06T10:14:21;101765.56;;;29.91;44.09
9784;BME280;4931;44.874;-1.092;2022-08-06T10:19:15;101767.16;;;29.89;42.27
9784;BME280;4931;44.874;-1.092;2022-08-06T10:24:02;101757.34;;;29.79;42.36
9784;BME280;4931;44.874;-1.092;2022-08-06T10:28:52;101765.75;;;30.13;42.06
9784;BME280;4931;44.874;-1.092;2022-08-06T10:33:40;101745.69;;;30.33;41.58
9784;BME280;4931;44.874;-1.092;2022-08-06T10:38:38;101740.19;;;30.54;40.63
9784;BME280;4931;44.874;-1.092;2022-08-06T10:43:35;101740.56;;;31.19;39.09
9784;BME280;4931;44.874;-1.092;2022-08-06T10:48:29;101751.16;;;31.51;37.79
9784;BME280;4931;44.874;-1.092;2022-08-06T10:53:35;101740.63;;;31.55;37.51
9784;BME280;4931;44.874;-1.092;2022-08-06T10:58:41;101736.25;;;31.76;37.42
9784;BME280;4931;44.874;-1.092;2022-08-06T11:03:38;101723.69;;;32.24;35.99
9784;BME280;4931;44.874;-1.092;2022-08-06T11:08:42;101722.03;;;32.48;35.37
9784;BME280;4931;44.874;-1.092;2022-08-06T11:13:51;101724.50;;;32.24;35.09
9784;BME280;4931;44.874;-1.092;2022-08-06T11:19:03;101720.41;;;32.40;34.22
9784;BME280;4931;44.874;-1.092;2022-08-06T11:23:59;101701.69;;;32.75;33.82
9784;BME280;4931;44.874;-1.092;2022-08-06T11:28:59;101717.91;;;32.67;33.54
9784;BME280;4931;44.874;-1.092;2022-08-06T11:34:05;101702.59;;;31.92;35.01
9784;BME280;4931;44.874;-1.092;2022-08-06T11:38:59;101700.06;;;32.74;33.56
9784;BME280;4931;44.874;-1.092;2022-08-06T11:44:05;101694.38;;;32.74;33.21
9784;BME280;4931;44.874;-1.092;2022-08-06T11:49:18;101688.69;;;32.67;33.09
9784;BME280;4931;44.874;-1.092;2022-08-06T11:54:15;101695.16;;;32.85;32.34
9784;BME280;4931;44.874;-1.092;2022-08-06T11:59:13;101683.09;;;32.45;32.66
9784;BME280;4931;44.874;-1.092;2022-08-06T12:03:59;101680.50;;;32.90;32.03
9784;BME280;4931;44.874;-1.092;2022-08-06T12:09:05;101675.09;;;33.18;31.18
9784;BME280;4931;44.874;-1.092;2022-08-06T12:13:56;101663.97;;;33.45;30.84
9784;BME280;4931;44.874;-1.092;2022-08-06T12:19:03;101674.31;;;33.10;31.31
9784;BME280;4931;44.874;-1.092;2022-08-06T12:23:50;101657.63;;;33.19;30.48
9784;BME280;4931;44.874;-1.092;2022-08-06T12:28:41;101658.94;;;33.64;30.26
9784;BME280;4931;44.874;-1.092;2022-08-06T12:33:27;101670.38;;;32.89;30.52
9784;BME280;4931;44.874;-1.092;2022-08-06T12:38:13;101656.84;;;33.15;30.86
9784;BME280;4931;44.874;-1.092;2022-08-06T12:43:10;101649.94;;;33.16;30.40
9784;BME280;4931;44.874;-1.092;2022-08-06T12:48:13;101655.06;;;32.61;30.90
9784;BME280;4931;44.874;-1.092;2022-08-06T12:53:02;101662.84;;;32.36;31.29
9784;BME280;4931;44.874;-1.092;2022-08-06T12:57:53;101644.84;;;32.82;30.72
9784;BME280;4931;44.874;-1.092;2022-08-06T13:02:44;101625.88;;;32.57;30.82
9784;BME280;4931;44.874;-1.092;2022-08-06T13:07:33;101625.25;;;32.99;30.22
9784;BME280;4931;44.874;-1.092;2022-08-06T13:12:25;101621.38;;;32.64;30.25
9784;BME280;4931;44.874;-1.092;2022-08-06T13:17:30;101616.63;;;33.20;29.72
9784;BME280;4931;44.874;-1.092;2022-08-06T13:22:52;101625.00;;;33.38;29.06
9784;BME280;4931;44.874;-1.092;2022-08-06T13:27:38;101622.97;;;32.75;29.36
9784;BME280;4931;44.874;-1.092;2022-08-06T13:32:37;101611.41;;;33.08;28.90
9784;BME280;4931;44.874;-1.092;2022-08-06T13:37:47;101615.31;;;32.61;28.54
9784;BME280;4931;44.874;-1.092;2022-08-06T13:42:53;101604.38;;;32.53;28.78
9784;BME280;4931;44.874;-1.092;2022-08-06T13:47:38;101610.03;;;32.56;28.41
9784;BME280;4931;44.874;-1.092;2022-08-06T13:52:39;101596.69;;;32.53;28.99
9784;BME280;4931;44.874;-1.092;2022-08-06T13:57:25;101605.16;;;32.57;28.56
9784;BME280;4931;44.874;-1.092;2022-08-06T14:02:28;101613.31;;;32.48;28.22
9784;BME280;4931;44.874;-1.092;2022-08-06T14:07:15;101598.34;;;32.40;28.32
9784;BME280;4931;44.874;-1.092;2022-08-06T14:12:02;101587.44;;;32.27;28.58
9784;BME280;4931;44.874;-1.092;2022-08-06T14:16:50;101581.81;;;32.20;28.74
9784;BME280;4931;44.874;-1.092;2022-08-06T14:21:38;101597.13;;;32.37;28.01
9784;BME280;4931;44.874;-1.092;2022-08-06T14:26:28;101587.38;;;32.49;28.10
9784;BME280;4931;44.874;-1.092;2022-08-06T14:31:15;101587.75;;;32.55;28.59
9784;BME280;4931;44.874;-1.092;2022-08-06T14:36:04;101585.81;;;32.34;27.74
9784;BME280;4931;44.874;-1.092;2022-08-06T14:40:52;101559.00;;;32.49;27.77
9784;BME280;4931;44.874;-1.092;2022-08-06T14:45:51;101550.09;;;32.40;28.44
9784;BME280;4931;44.874;-1.092;2022-08-06T14:50:36;101543.06;;;32.66;27.77
9784;BME280;4931;44.874;-1.092;2022-08-06T14:55:25;101561.53;;;32.18;26.94
9784;BME280;4931;44.874;-1.092;2022-08-06T15:00:15;101559.97;;;31.92;28.32
9784;BME280;4931;44.874;-1.092;2022-08-06T15:05:07;101559.94;;;32.03;26.91
9784;BME280;4931;44.874;-1.092;2022-08-06T15:10:13;101547.41;;;31.82;27.25
9784;BME280;4931;44.874;-1.092;2022-08-06T15:15:09;101539.28;;;31.99;26.56
9784;BME280;4931;44.874;-1.092;2022-08-06T15:19:58;101544.66;;;31.68;27.26
9784;BME280;4931;44.874;-1.092;2022-08-06T15:24:43;101540.56;;;31.76;26.79
9784;BME280;4931;44.874;-1.092;2022-08-06T15:29:29;101530.84;;;31.55;27.23
9784;BME280;4931;44.874;-1.092;2022-08-06T15:34:15;101526.81;;;31.71;26.63
9784;BME280;4931;44.874;-1.092;2022-08-06T15:39:11;101526.00;;;31.52;26.19
9784;BME280;4931;44.874;-1.092;2022-08-06T15:44:03;101521.16;;;31.42;25.75
9784;BME280;4931;44.874;-1.092;2022-08-06T15:48:49;101513.84;;;31.37;26.51
9784;BME280;4931;44.874;-1.092;2022-08-06T15:53:36;101513.44;;;31.46;27.14
9784;BME280;4931;44.874;-1.092;2022-08-06T15:58:27;101500.91;;;31.40;26.66
9784;BME280;4931;44.874;-1.092;2022-08-06T16:03:12;101499.69;;;31.01;27.00
9784;BME280;4931;44.874;-1.092;2022-08-06T16:07:57;101504.97;;;31.35;26.71
9784;BME280;4931;44.874;-1.092;2022-08-06T16:12:45;101512.25;;;31.18;27.00
9784;BME280;4931;44.874;-1.092;2022-08-06T16:17:35;101504.97;;;31.35;27.58
9784;BME280;4931;44.874;-1.092;2022-08-06T16:22:41;101492.81;;;31.06;27.24
9784;BME280;4931;44.874;-1.092;2022-08-06T16:27:27;101500.88;;;30.89;27.30
9784;BME280;4931;44.874;-1.092;2022-08-06T16:32:19;101496.00;;;30.72;27.97
9784;BME280;4931;44.874;-1.092;2022-08-06T16:37:10;101490.38;;;30.83;27.66
9784;BME280;4931;44.874;-1.092;2022-08-06T16:42:15;101488.75;;;30.82;27.61
9784;BME280;4931;44.874;-1.092;2022-08-06T16:47:00;101498.41;;;30.62;27.67
9784;BME280;4931;44.874;-1.092;2022-08-06T16:51:47;101503.25;;;30.51;28.06
9784;BME280;4931;44.874;-1.092;2022-08-06T16:56:55;101492.69;;;30.41;28.18
9784;BME280;4931;44.874;-1.092;2022-08-06T17:01:41;101491.03;;;30.36;28.21
9784;BME280;4931;44.874;-1.092;2022-08-06T17:07:02;101491.81;;;30.22;28.47
9784;BME280;4931;44.874;-1.092;2022-08-06T17:11:47;101490.13;;;30.07;28.57
9784;BME280;4931;44.874;-1.092;2022-08-06T17:16:45;101486.81;;;29.90;28.42
9784;BME280;4931;44.874;-1.092;2022-08-06T17:21:33;101488.31;;;29.73;28.54
9784;BME280;4931;44.874;-1.092;2022-08-06T17:26:38;101479.41;;;29.68;28.60
9784;BME280;4931;44.874;-1.092;2022-08-06T17:31:48;101481.84;;;29.73;28.21
9784;BME280;4931;44.874;-1.092;2022-08-06T17:36:39;101468.06;;;29.60;28.08
9784;BME280;4931;44.874;-1.092;2022-08-06T17:41:32;101469.53;;;29.40;28.00
9784;BME280;4931;44.874;-1.092;2022-08-06T17:46:28;101472.75;;;29.35;27.72
9784;BME280;4931;44.874;-1.092;2022-08-06T17:51:21;101471.13;;;29.37;27.76
9784;BME280;4931;44.874;-1.092;2022-08-06T17:56:15;101470.28;;;29.29;28.13
9784;BME280;4931;44.874;-1.092;2022-08-06T18:01:12;101479.81;;;29.14;27.85
9784;BME280;4931;44.874;-1.092;2022-08-06T18:06:21;101480.56;;;29.04;28.06
9784;BME280;4931;44.874;-1.092;2022-08-06T18:11:10;101494.66;;;29.04;28.73
9784;BME280;4931;44.874;-1.092;2022-08-06T18:15:57;101490.56;;;28.97;28.71
9784;BME280;4931;44.874;-1.092;2022-08-06T18:20:42;101503.81;;;28.90;28.32
9784;BME280;4931;44.874;-1.092;2022-08-06T18:25:32;101500.59;;;28.91;28.31
9784;BME280;4931;44.874;-1.092;2022-08-06T18:30:39;101511.53;;;28.59;29.07
9784;BME280;4931;44.874;-1.092;2022-08-06T18:35:29;101510.63;;;28.51;30.00
9784;BME280;4931;44.874;-1.092;2022-08-06T18:40:37;101515.34;;;28.40;29.51
9784;BME280;4931;44.874;-1.092;2022-08-06T18:45:38;101519.38;;;28.39;30.21
9784;BME280;4931;44.874;-1.092;2022-08-06T18:50:41;101524.94;;;28.31;29.80
9784;BME280;4931;44.874;-1.092;2022-08-06T18:55:26;101529.50;;;28.13;30.52
9784;BME280;4931;44.874;-1.092;2022-08-06T19:00:35;101526.13;;;28.00;30.37
9784;BME280;4931;44.874;-1.092;2022-08-06T19:05:22;101538.84;;;27.90;30.85
9784;BME280;4931;44.874;-1.092;2022-08-06T19:10:10;101528.72;;;27.86;31.92
9784;BME280;4931;44.874;-1.092;2022-08-06T19:14:56;101534.69;;;27.80;31.29
9784;BME280;4931;44.874;-1.092;2022-08-06T19:19:44;101547.53;;;27.78;31.64
9784;BME280;4931;44.874;-1.092;2022-08-06T19:24:52;101545.69;;;27.62;31.93
9784;BME280;4931;44.874;-1.092;2022-08-06T19:29:41;101548.75;;;27.54;32.29
9784;BME280;4931;44.874;-1.092;2022-08-06T19:34:46;101560.63;;;27.40;32.43
9784;BME280;4931;44.874;-1.092;2022-08-06T19:39:34;101551.06;;;27.25;32.75
9784;BME280;4931;44.874;-1.092;2022-08-06T19:44:39;101560.09;;;27.11;33.22
9784;BME280;4931;44.874;-1.092;2022-08-06T19:49:48;101571.72;;;26.86;33.89
9784;BME280;4931;44.874;-1.092;2022-08-06T19:54:34;101574.75;;;26.77;34.72
9784;BME280;4931;44.874;-1.092;2022-08-06T19:59:23;101577.75;;;26.68;35.05
9784;BME280;4931;44.874;-1.092;2022-08-06T20:04:28;101583.13;;;26.74;35.31
9784;BME280;4931;44.874;-1.092;2022-08-06T20:09:16;101597.47;;;26.49;35.52
9784;BME280;4931;44.874;-1.092;2022-08-06T20:14:10;101601.00;;;26.46;36.25
9784;BME280;4931;44.874;-1.092;2022-08-06T20:18:57;101608.25;;;26.27;36.65
9784;BME280;4931;44.874;-1.092;2022-08-06T20:23:43;101614.44;;;26.17;37.13
9784;BME280;4931;44.874;-1.092;2022-08-06T20:28:36;101605.31;;;26.04;37.38
9784;BME280;4931;44.874;-1.092;2022-08-06T20:33:42;101624.28;;;25.91;38.39
9784;BME280;4931;44.874;-1.092;2022-08-06T20:38:40;101625.09;;;25.76;38.99
9784;BME280;4931;44.874;-1.092;2022-08-06T20:43:26;101628.81;;;25.80;38.81
9784;BME280;4931;44.874;-1.092;2022-08-06T20:48:34;101638.94;;;25.68;39.33
9784;BME280;4931;44.874;-1.092;2022-08-06T20:53:20;101643.31;;;25.50;40.33
9784;BME280;4931;44.874;-1.092;2022-08-06T20:58:13;101639.06;;;25.40;40.92
9784;BME280;4931;44.874;-1.092;2022-08-06T21:02:58;101639.53;;;25.30;41.20
9784;BME280;4931;44.874;-1.092;2022-08-06T21:08:06;101642.00;;;25.31;41.11
9784;BME280;4931;44.874;-1.092;2022-08-06T21:12:53;101642.84;;;25.03;41.72
9784;BME280;4931;44.874;-1.092;2022-08-06T21:17:43;101649.19;;;25.00;41.77
9784;BME280;4931;44.874;-1.092;2022-08-06T21:22:37;101644.16;;;24.94;42.05
9784;BME280;4931;44.874;-1.092;2022-08-06T21:27:27;101641.59;;;24.89;42.21
9784;BME280;4931;44.874;-1.092;2022-08-06T21:32:19;101635.94;;;24.73;42.24
9784;BME280;4931;44.874;-1.092;2022-08-06T21:37:17;101643.69;;;24.63;42.07
9784;BME280;4931;44.874;-1.092;2022-08-06T21:42:26;101641.56;;;24.60;42.12
9784;BME280;4931;44.874;-1.092;2022-08-06T21:47:12;101642.53;;;24.52;42.50
9784;BME280;4931;44.874;-1.092;2022-08-06T21:52:00;101631.13;;;24.32;42.71
9784;BME280;4931;44.874;-1.092;2022-08-06T21:56:47;101642.00;;;24.22;42.62
9784;BME280;4931;44.874;-1.092;2022-08-06T22:01:35;101626.50;;;24.12;42.70
9784;BME280;4931;44.874;-1.092;2022-08-06T22:06:41;101634.66;;;24.17;42.83
9784;BME280;4931;44.874;-1.092;2022-08-06T22:11:35;101630.91;;;24.00;43.39
9784;BME280;4931;44.874;-1.092;2022-08-06T22:16:43;101637.00;;;23.90;43.55
9784;BME280;4931;44.874;-1.092;2022-08-06T22:21:35;101635.09;;;23.82;43.40
9784;BME280;4931;44.874;-1.092;2022-08-06T22:26:32;101637.00;;;23.90;43.33
9784;BME280;4931;44.874;-1.092;2022-08-06T22:31:17;101633.13;;;23.82;43.35
9784;BME280;4931;44.874;-1.092;2022-08-06T22:36:14;101643.97;;;23.59;44.41
9784;BME280;4931;44.874;-1.092;2022-08-06T22:41:15;101640.31;;;23.46;44.75
9784;BME280;4931;44.874;-1.092;2022-08-06T22:46:21;101636.00;;;23.36;44.67
9784;BME280;4931;44.874;-1.092;2022-08-06T22:51:07;101632.72;;;23.34;45.50
9784;BME280;4931;44.874;-1.092;2022-08-06T22:56:12;101647.06;;;23.33;45.19
9784;BME280;4931;44.874;-1.092;2022-08-06T23:00:57;101634.56;;;23.18;46.02
9784;BME280;4931;44.874;-1.092;2022-08-06T23:06:03;101645.31;;;23.07;46.45
9784;BME280;4931;44.874;-1.092;2022-08-06T23:10:50;101639.59;;;23.03;46.78
9784;BME280;4931;44.874;-1.092;2022-08-06T23:15:38;101641.94;;;22.80;47.53
9784;BME280;4931;44.874;-1.092;2022-08-06T23:20:29;101640.13;;;22.63;48.24
9784;BME280;4931;44.874;-1.092;2022-08-06T23:25:16;101636.56;;;22.54;48.64
9784;BME280;4931;44.874;-1.092;2022-08-06T23:30:22;101642.50;;;22.52;48.87
9784;BME280;4931;44.874;-1.092;2022-08-06T23:35:10;101637.66;;;22.41;49.43
9784;BME280;4931;44.874;-1.092;2022-08-06T23:40:15;101642.38;;;22.19;50.30
9784;BME280;4931;44.874;-1.092;2022-08-06T23:45:01;101631.94;;;22.28;50.19
9784;BME280;4931;44.874;-1.092;2022-08-06T23:49:47;101637.25;;;22.21;50.33
9784;BME280;4931;44.874;-1.092;2022-08-06T23:54:35;101636.13;;;22.22;50.36
9784;BME280;4931;44.874;-1.092;2022-08-06T23:59:20;101631.69;;;21.91;51.55
